DIKCM EDLW-EDLW

Flight info

Callsign DIKCM
Flight time 0h 36m
Altitude
Route
Aircraft DA62

Departure

Time 2026-05-07 19:12
Airport Dortmund Airport (EDLW)

Arrival

Time 2026-05-07 19:48
Airport Dortmund Airport (EDLW)
Time Latitude Longitude Altitude Speed Heading
2026-05-07 19:04 51.51198 7.60395 457 ft 0 kts 112°
2026-05-07 19:04 51.51201 7.60411 457 ft 4 kts 33°
2026-05-07 19:04 51.51206 7.60328 452 ft 11 kts 234°
2026-05-07 19:04 51.51160 7.60231 455 ft 9 kts 241°
2026-05-07 19:05 51.51177 7.60162 451 ft 11 kts 358°
2026-05-07 19:05 51.51235 7.60263 435 ft 14 kts 66°
2026-05-07 19:05 51.51277 7.60395 435 ft 13 kts 57°
2026-05-07 19:05 51.51324 7.60519 431 ft 15 kts 64°
2026-05-07 19:06 51.51378 7.60680 437 ft 20 kts 60°
2026-05-07 19:06 51.51496 7.61014 426 ft 14 kts 60°
2026-05-07 19:06 51.51552 7.61053 425 ft 13 kts 336°
2026-05-07 19:07 51.51561 7.60915 420 ft 10 kts 252°
2026-05-07 19:07 51.51561 7.60910 420 ft 0 kts 254°
2026-05-07 19:08 51.51555 7.60881 421 ft 11 kts 254°
2026-05-07 19:08 51.51530 7.60735 417 ft 16 kts 257°
2026-05-07 19:09 51.51527 7.60696 416 ft 0 kts 276°
2026-05-07 19:09 51.51532 7.60661 416 ft 9 kts 290°
2026-05-07 19:09 51.51594 7.60607 412 ft 8 kts
2026-05-07 19:10 51.51628 7.60643 416 ft 0 kts 60°
2026-05-07 19:11 51.51667 7.60751 415 ft 35 kts 60°
2026-05-07 19:11 51.51868 7.61317 414 ft 78 kts 61°
2026-05-07 19:11 51.52181 7.62171 599 ft 82 kts 52°
2026-05-07 19:12 51.52441 7.62886 918 ft 74 kts 60°
2026-05-07 19:12 51.52375 7.63806 1057 ft 96 kts 116°
2026-05-07 19:12 51.51795 7.64368 1211 ft 111 kts 173°
2026-05-07 19:12 51.51168 7.63843 1371 ft 113 kts 236°
2026-05-07 19:13 51.50724 7.62856 1147 ft 103 kts 245°
2026-05-07 19:13 51.50313 7.61909 1036 ft 107 kts 238°
2026-05-07 19:13 51.49844 7.60947 1033 ft 110 kts 236°
2026-05-07 19:13 51.49375 7.59946 1008 ft 107 kts 229°
2026-05-07 19:14 51.48925 7.59076 935 ft 97 kts 228°
2026-05-07 19:14 51.48475 7.58213 969 ft 103 kts 227°
2026-05-07 19:14 51.48012 7.57363 1043 ft 96 kts 222°
2026-05-07 19:14 51.47419 7.57314 1149 ft 94 kts 133°
2026-05-07 19:15 51.47492 7.58226 1167 ft 103 kts 28°
2026-05-07 19:15 51.48052 7.57707 1246 ft 111 kts 277°
2026-05-07 19:15 51.47615 7.56955 1366 ft 104 kts 171°
2026-05-07 19:15 51.47332 7.57777 1471 ft 99 kts 56°
2026-05-07 19:16 51.47915 7.57684 1615 ft 103 kts 295°
2026-05-07 19:16 51.47649 7.56718 1656 ft 107 kts 217°
2026-05-07 19:16 51.47600 7.55685 1574 ft 102 kts 324°
2026-05-07 19:16 51.48291 7.55594 1331 ft 106 kts
2026-05-07 19:17 51.48997 7.55436 1114 ft 98 kts 356°
2026-05-07 19:17 51.49655 7.55515 1242 ft 96 kts 19°
2026-05-07 19:17 51.49764 7.56393 1413 ft 89 kts 130°
2026-05-07 19:17 51.49204 7.56279 1473 ft 96 kts 236°
2026-05-07 19:18 51.49243 7.55272 1560 ft 96 kts 311°
2026-05-07 19:18 51.49803 7.54911 1686 ft 86 kts 17°
2026-05-07 19:18 51.50050 7.55698 1660 ft 96 kts 113°
2026-05-07 19:18 51.49443 7.56140 1506 ft 108 kts 191°
2026-05-07 19:19 51.49083 7.55260 1330 ft 104 kts 287°
2026-05-07 19:19 51.49625 7.54713 1091 ft 97 kts 22°
2026-05-07 19:19 51.50006 7.55572 1027 ft 106 kts 68°
2026-05-07 19:19 51.50278 7.56536 891 ft 90 kts 65°
2026-05-07 19:20 51.50553 7.57409 738 ft 86 kts 63°
2026-05-07 19:20 51.50849 7.58345 702 ft 102 kts 63°
2026-05-07 19:20 51.51196 7.59370 624 ft 92 kts 63°
2026-05-07 19:20 51.51479 7.60207 491 ft 81 kts 62°
2026-05-07 19:21 51.51737 7.60946 415 ft 70 kts 61°
2026-05-07 19:21 51.51996 7.61705 668 ft 79 kts 61°
2026-05-07 19:21 51.52099 7.62502 1047 ft 79 kts 120°
2026-05-07 19:21 51.51539 7.62773 1365 ft 97 kts 191°
2026-05-07 19:22 51.51008 7.62126 1368 ft 101 kts 238°
2026-05-07 19:22 51.50657 7.61144 1188 ft 100 kts 235°
2026-05-07 19:22 51.50251 7.60274 1148 ft 97 kts 231°
2026-05-07 19:22 51.49832 7.59442 1168 ft 96 kts 227°
2026-05-07 19:23 51.49378 7.58628 1134 ft 99 kts 226°
2026-05-07 19:23 51.48915 7.57775 1108 ft 103 kts 226°
2026-05-07 19:23 51.48856 7.56735 1173 ft 101 kts 311°
2026-05-07 19:23 51.49488 7.56437 1113 ft 101 kts 15°
2026-05-07 19:24 51.50085 7.56892 1003 ft 93 kts 38°
2026-05-07 19:24 51.50557 7.57603 908 ft 94 kts 52°
2026-05-07 19:24 51.50897 7.58510 759 ft 95 kts 64°
2026-05-07 19:24 51.51206 7.59429 649 ft 91 kts 61°
2026-05-07 19:25 51.51511 7.60296 475 ft 87 kts 62°
2026-05-07 19:25 51.51767 7.61037 415 ft 71 kts 62°
2026-05-07 19:25 51.52026 7.61789 745 ft 74 kts 71°
2026-05-07 19:25 51.51900 7.62551 1064 ft 83 kts 135°
2026-05-07 19:26 51.51331 7.62928 1388 ft 97 kts 181°
2026-05-07 19:26 51.50755 7.62183 1546 ft 129 kts 238°
2026-05-07 19:26 51.50364 7.60954 1370 ft 111 kts 246°
2026-05-07 19:26 51.50079 7.59863 1249 ft 104 kts 246°
2026-05-07 19:27 51.49815 7.58788 1126 ft 101 kts 248°
2026-05-07 19:27 51.49563 7.57730 1027 ft 101 kts 246°
2026-05-07 19:27 51.49291 7.56733 1040 ft 92 kts 248°
2026-05-07 19:27 51.49088 7.55776 1031 ft 91 kts 252°
2026-05-07 19:28 51.49032 7.54790 1072 ft 91 kts 297°
2026-05-07 19:28 51.49524 7.54265 1024 ft 88 kts 16°
2026-05-07 19:28 51.49838 7.55094 1114 ft 97 kts 73°
2026-05-07 19:28 51.50070 7.56054 1050 ft 88 kts 66°
2026-05-07 19:29 51.50340 7.56922 940 ft 88 kts 62°
2026-05-07 19:29 51.50648 7.57781 858 ft 87 kts 63°
2026-05-07 19:29 51.50928 7.58631 728 ft 86 kts 63°
2026-05-07 19:29 51.51217 7.59458 597 ft 83 kts 61°
2026-05-07 19:30 51.51497 7.60250 472 ft 81 kts 62°
2026-05-07 19:30 51.51784 7.61005 613 ft 76 kts 47°
2026-05-07 19:30 51.52225 7.61578 916 ft 82 kts 44°
2026-05-07 19:30 51.52661 7.62286 1198 ft 101 kts 21°
2026-05-07 19:31 51.53127 7.61561 1452 ft 117 kts 263°
2026-05-07 19:31 51.52767 7.60534 1135 ft 102 kts 234°
2026-05-07 19:31 51.52357 7.59658 876 ft 99 kts 230°
2026-05-07 19:31 51.51887 7.58755 938 ft 106 kts 230°
2026-05-07 19:32 51.51451 7.57795 1036 ft 108 kts 233°
2026-05-07 19:32 51.50995 7.56860 1126 ft 111 kts 229°
2026-05-07 19:32 51.50506 7.55895 1264 ft 112 kts 230°
2026-05-07 19:32 51.49889 7.55652 1228 ft 100 kts 111°
2026-05-07 19:33 51.50162 7.56526 1065 ft 87 kts 54°
2026-05-07 19:33 51.50499 7.57339 934 ft 86 kts 59°
2026-05-07 19:33 51.50791 7.58158 798 ft 82 kts 63°
2026-05-07 19:33 51.51049 7.58963 677 ft 80 kts 63°
2026-05-07 19:34 51.51321 7.59748 581 ft 80 kts 61°
2026-05-07 19:34 51.51595 7.60543 407 ft 82 kts 60°
2026-05-07 19:34 51.51857 7.61282 441 ft 80 kts 61°
2026-05-07 19:34 51.52143 7.62063 830 ft 77 kts 57°
2026-05-07 19:35 51.52225 7.62866 1237 ft 82 kts 112°
2026-05-07 19:35 51.51768 7.63362 1438 ft 87 kts 184°
2026-05-07 19:35 51.51312 7.62684 1297 ft 96 kts 234°
2026-05-07 19:35 51.50958 7.61792 1153 ft 94 kts 237°
2026-05-07 19:36 51.50602 7.60915 1104 ft 91 kts 237°
2026-05-07 19:36 51.50279 7.60044 1062 ft 89 kts 240°
2026-05-07 19:36 51.50289 7.59069 925 ft 94 kts 303°
2026-05-07 19:36 51.50784 7.58568 788 ft 82 kts 15°
2026-05-07 19:37 51.51135 7.59226 600 ft 84 kts 63°
2026-05-07 19:37 51.51411 7.60011 502 ft 77 kts 62°
2026-05-07 19:37 51.51712 7.60877 440 ft 108 kts 60°
2026-05-07 19:37 51.52132 7.62069 623 ft 114 kts 63°
2026-05-07 19:38 51.52258 7.62697 1309 ft 82 kts 88°
2026-05-07 19:38 51.51968 7.63481 1679 ft 94 kts 151°
2026-05-07 19:38 51.51337 7.63427 1703 ft 97 kts 216°
2026-05-07 19:38 51.50899 7.62561 1444 ft 102 kts 234°
2026-05-07 19:39 51.50517 7.61624 1256 ft 98 kts 238°
2026-05-07 19:39 51.50228 7.60616 1116 ft 111 kts 261°
2026-05-07 19:39 51.50555 7.59446 1154 ft 139 kts 346°
2026-05-07 19:39 51.51461 7.60170 602 ft 179 kts 57°
2026-05-07 19:40 51.52097 7.61972 440 ft 183 kts 61°
2026-05-07 19:40 51.52004 7.63184 1860 ft 94 kts 136°
2026-05-07 19:40 51.51384 7.63202 1759 ft 103 kts 212°
2026-05-07 19:40 51.50851 7.62353 1477 ft 108 kts 226°
2026-05-07 19:41 51.50405 7.61467 1206 ft 104 kts 239°
2026-05-07 19:41 51.50395 7.60391 1018 ft 99 kts 302°
2026-05-07 19:41 51.50881 7.59659 772 ft 91 kts 343°
2026-05-07 19:41 51.51399 7.59959 486 ft 84 kts 63°
2026-05-07 19:42 51.51666 7.60749 414 ft 73 kts 62°
2026-05-07 19:42 51.51919 7.61486 497 ft 85 kts 63°
2026-05-07 19:42 51.52156 7.62257 1003 ft 72 kts 73°
2026-05-07 19:42 51.52082 7.63106 1317 ft 88 kts 121°
2026-05-07 19:43 51.51575 7.63730 1312 ft 97 kts 162°
2026-05-07 19:43 51.50941 7.63455 1241 ft 102 kts 224°
2026-05-07 19:43 51.50519 7.62490 1130 ft 108 kts 236°
2026-05-07 19:43 51.50128 7.61486 1028 ft 108 kts 240°
2026-05-07 19:44 51.49779 7.60438 1083 ft 104 kts 243°
2026-05-07 19:44 51.49464 7.59423 1148 ft 100 kts 242°
2026-05-07 19:44 51.49158 7.58457 1228 ft 94 kts 242°
2026-05-07 19:44 51.48870 7.57497 1235 ft 97 kts 244°
2026-05-07 19:45 51.48591 7.56510 1261 ft 98 kts 244°
2026-05-07 19:45 51.48068 7.56023 1274 ft 94 kts 153°
2026-05-07 19:45 51.48019 7.56854 1267 ft 95 kts 29°
2026-05-07 19:45 51.48666 7.56575 1189 ft 106 kts 336°
2026-05-07 19:46 51.49289 7.56081 1002 ft 96 kts 344°
2026-05-07 19:46 51.49891 7.56196 951 ft 91 kts 31°
2026-05-07 19:46 51.50347 7.56907 897 ft 96 kts 60°
2026-05-07 19:46 51.50648 7.57808 828 ft 82 kts 61°
2026-05-07 19:47 51.50928 7.58599 719 ft 83 kts 62°
2026-05-07 19:47 51.51208 7.59423 634 ft 84 kts 62°
2026-05-07 19:47 51.51488 7.60235 518 ft 82 kts 62°
2026-05-07 19:47 51.51760 7.61015 425 ft 78 kts 60°
2026-05-07 19:48 51.51988 7.61663 409 ft 52 kts 60°
2026-05-07 19:48 51.52132 7.62072 407 ft 34 kts 60°
2026-05-07 19:48 51.52194 7.62284 405 ft 14 kts 90°
2026-05-07 19:48 51.52141 7.62353 405 ft 13 kts 153°
2026-05-07 19:49 51.52054 7.62400 404 ft 13 kts 208°
2026-05-07 19:49 51.52008 7.62264 407 ft 15 kts 240°
2026-05-07 19:49 51.51992 7.62219 407 ft 14 kts 240°
2026-05-07 19:50 51.51969 7.62155 408 ft 16 kts 240°
2026-05-07 19:50 51.51894 7.61942 410 ft 23 kts 241°
2026-05-07 19:50 51.51814 7.61713 412 ft 24 kts 240°
2026-05-07 19:50 51.51735 7.61489 410 ft 22 kts 240°
2026-05-07 19:51 51.51659 7.61275 421 ft 22 kts 241°
2026-05-07 19:51 51.51585 7.61067 421 ft 17 kts 229°
2026-05-07 19:51 51.51497 7.61031 423 ft 14 kts 224°
2026-05-07 19:51 51.51441 7.60859 431 ft 24 kts 240°
2026-05-07 19:52 51.51360 7.60631 434 ft 24 kts 240°
2026-05-07 19:52 51.51279 7.60396 434 ft 23 kts 240°
2026-05-07 19:52 51.51210 7.60202 447 ft 10 kts 241°
2026-05-07 19:52 51.51166 7.60162 453 ft 6 kts 154°
2026-05-07 19:53 51.51166 7.60243 455 ft 10 kts 54°
2026-05-07 19:53 51.51208 7.60344 452 ft 7 kts 100°
2026-05-07 19:53 51.51200 7.60384 456 ft 7 kts 106°
2026-05-07 19:53 51.51198 7.60395 457 ft 0 kts 107°